createdAt,value
2019-05-02T00:00:01.891Z,0.00
2019-05-02T00:01:01.882Z,0.00
2019-05-02T00:02:01.871Z,0.00
2019-05-02T00:03:04.543Z,0.00
2019-05-02T00:04:01.834Z,0.00
2019-05-02T00:05:01.829Z,0.00
2019-05-02T00:06:02.928Z,0.00
2019-05-02T00:07:02.829Z,0.00
2019-05-02T00:08:01.789Z,0.00
2019-05-02T00:09:03.994Z,0.00
2019-05-02T00:10:02.981Z,0.00
2019-05-02T00:11:01.821Z,0.00
2019-05-02T00:12:01.764Z,0.00
2019-05-02T00:13:01.721Z,0.00
2019-05-02T00:14:01.719Z,0.00
2019-05-02T00:15:03.395Z,0.00
2019-05-02T00:16:01.695Z,0.00
2019-05-02T00:17:01.701Z,0.00
2019-05-02T00:18:02.697Z,0.00
2019-05-02T00:19:01.661Z,0.00
2019-05-02T00:20:01.651Z,0.00
2019-05-02T00:21:03.142Z,0.00
2019-05-02T00:22:01.648Z,0.00
2019-05-02T00:23:01.623Z,0.00
2019-05-02T00:24:03.076Z,0.00
2019-05-02T00:25:01.599Z,0.00
2019-05-02T00:26:01.646Z,0.00
2019-05-02T00:27:03.142Z,0.00
2019-05-02T00:28:01.596Z,0.00
2019-05-02T00:29:01.550Z,0.00
2019-05-02T00:30:01.540Z,0.00
2019-05-02T00:31:01.602Z,0.00
2019-05-02T00:32:09.043Z,0.00
2019-05-02T00:33:01.654Z,0.00
2019-05-02T00:34:09.251Z,0.00
2019-05-02T00:35:01.481Z,0.00
2019-05-02T00:36:01.481Z,0.00
2019-05-02T00:37:01.471Z,0.00
2019-05-02T00:38:02.419Z,0.00
2019-05-02T00:39:01.638Z,0.00
2019-05-02T00:40:01.433Z,0.00
2019-05-02T00:41:02.131Z,0.00
2019-05-02T00:42:12.119Z,0.00
2019-05-02T00:43:02.429Z,0.00
2019-05-02T00:44:01.380Z,0.00
2019-05-02T00:45:01.378Z,0.00
2019-05-02T00:46:01.399Z,0.00
2019-05-02T00:47:01.356Z,0.00
2019-05-02T00:48:01.360Z,0.00
2019-05-02T00:49:01.884Z,0.00
2019-05-02T00:50:01.326Z,0.00
2019-05-02T00:51:01.301Z,0.00
2019-05-02T00:52:03.031Z,0.00
2019-05-02T00:53:01.302Z,0.00
2019-05-02T00:54:01.291Z,0.00
2019-05-02T00:55:01.259Z,0.00
2019-05-02T00:56:05.152Z,0.00
2019-05-02T00:57:02.239Z,0.00
2019-05-02T00:58:01.234Z,0.00
2019-05-02T00:59:02.371Z,0.00
2019-05-02T01:00:02.399Z,0.00
2019-05-02T01:01:01.213Z,0.00
2019-05-02T01:02:05.347Z,0.00
2019-05-02T01:03:02.192Z,0.00
2019-05-02T01:04:01.189Z,0.00
2019-05-02T01:05:03.220Z,0.00
2019-05-02T01:06:01.138Z,0.00
2019-05-02T01:07:01.128Z,0.00
2019-05-02T01:08:02.878Z,0.00
2019-05-02T01:09:01.222Z,0.00
2019-05-02T01:10:01.105Z,0.00
2019-05-02T01:11:01.089Z,0.00
2019-05-02T01:12:03.269Z,0.00
2019-05-02T01:13:02.077Z,0.00
2019-05-02T01:14:01.098Z,0.00
2019-05-02T01:15:03.256Z,0.00
2019-05-02T01:16:02.035Z,0.00
2019-05-02T01:17:01.017Z,0.00
2019-05-02T01:18:05.590Z,0.00
2019-05-02T01:19:02.018Z,0.00
2019-05-02T01:20:01.000Z,0.00
2019-05-02T01:21:02.797Z,0.00
2019-05-02T01:22:00.968Z,0.00
2019-05-02T01:23:00.976Z,0.00
2019-05-02T01:24:03.011Z,0.00
2019-05-02T01:25:00.941Z,0.00
2019-05-02T01:26:00.920Z,0.00
2019-05-02T01:27:04.649Z,0.00
2019-05-02T01:28:01.897Z,0.00
2019-05-02T01:29:00.906Z,0.00
2019-05-02T01:30:01.618Z,0.00
2019-05-02T01:31:00.879Z,0.00
2019-05-02T01:32:00.867Z,0.00
2019-05-02T01:33:01.379Z,0.00
2019-05-02T01:34:01.856Z,0.00
2019-05-02T01:35:01.616Z,0.00
2019-05-02T01:36:01.646Z,0.00
2019-05-02T01:37:01.797Z,0.00
2019-05-02T01:38:00.807Z,0.00
2019-05-02T01:39:03.028Z,0.00
2019-05-02T01:40:01.790Z,0.00
2019-05-02T01:41:00.766Z,0.00
2019-05-02T01:42:04.258Z,0.00
2019-05-02T01:43:00.739Z,0.00
2019-05-02T01:44:01.658Z,0.00
2019-05-02T01:45:00.748Z,0.00
2019-05-02T01:46:00.704Z,0.00
2019-05-02T01:47:00.685Z,0.00
2019-05-02T01:48:04.888Z,0.00
2019-05-02T01:49:00.685Z,0.00
2019-05-02T01:50:00.677Z,0.00
2019-05-02T01:51:04.395Z,0.00
2019-05-02T01:52:01.636Z,0.00
2019-05-02T01:53:00.618Z,0.00
2019-05-02T01:54:04.896Z,0.00
2019-05-02T01:55:01.631Z,0.00
2019-05-02T01:56:00.598Z,0.00
2019-05-02T01:57:04.053Z,0.00
2019-05-02T01:58:01.564Z,0.00
2019-05-02T01:59:00.554Z,0.00
2019-05-02T02:00:04.240Z,0.00
2019-05-02T02:01:01.525Z,0.00
2019-05-02T02:02:00.514Z,0.00
2019-05-02T02:03:04.161Z,0.00
2019-05-02T02:04:01.495Z,0.00
2019-05-02T02:05:02.153Z,0.00
2019-05-02T02:06:02.932Z,0.00
2019-05-02T02:07:01.469Z,0.00
2019-05-02T02:08:00.452Z,0.00
2019-05-02T02:09:03.452Z,0.00
2019-05-02T02:10:01.473Z,0.00
2019-05-02T02:11:00.422Z,0.00
2019-05-02T02:12:00.423Z,0.00
2019-05-02T02:13:04.695Z,0.00
2019-05-02T02:14:00.385Z,0.00
2019-05-02T02:15:00.406Z,0.00
2019-05-02T02:16:04.395Z,0.00
2019-05-02T02:17:01.353Z,0.00
2019-05-02T02:18:00.347Z,0.00
2019-05-02T02:19:04.117Z,0.00
2019-05-02T02:20:01.353Z,0.00
2019-05-02T02:21:00.321Z,0.00
2019-05-02T02:22:02.775Z,0.00
2019-05-02T02:23:00.295Z,0.00
2019-05-02T02:24:00.326Z,0.00
2019-05-02T02:25:00.970Z,0.00
2019-05-02T02:26:00.291Z,0.00
2019-05-02T02:27:00.242Z,0.00
2019-05-02T02:28:01.023Z,0.00
2019-05-02T02:29:03.075Z,0.00
2019-05-02T02:30:01.258Z,0.00
2019-05-02T02:31:05.035Z,0.00
2019-05-02T02:32:01.192Z,0.00
2019-05-02T02:33:06.965Z,0.00
2019-05-02T02:34:01.189Z,0.00
2019-05-02T02:35:03.387Z,0.00
2019-05-02T02:36:01.713Z,0.00
2019-05-02T02:37:05.343Z,0.00
2019-05-02T02:38:01.132Z,0.00
2019-05-02T02:39:00.121Z,0.00
2019-05-02T02:40:00.103Z,0.00
2019-05-02T02:41:00.109Z,0.00
2019-05-02T02:42:00.123Z,0.00
2019-05-02T02:43:12.863Z,0.00
2019-05-02T02:44:02.988Z,0.00
2019-05-02T02:45:00.053Z,0.00
2019-05-02T02:46:00.072Z,0.00
2019-05-02T02:47:00.034Z,0.00
2019-05-02T02:48:02.364Z,0.00
2019-05-02T02:49:00.007Z,0.00
2019-05-02T02:50:02.532Z,0.00
2019-05-02T02:51:01.002Z,0.00
2019-05-02T02:52:04.723Z,0.00
2019-05-02T02:53:00.960Z,0.00
2019-05-02T02:54:04.061Z,0.00
2019-05-02T02:55:00.940Z,0.00
2019-05-02T02:56:02.085Z,0.00
2019-05-02T02:56:59.940Z,0.00
2019-05-02T02:58:04.826Z,0.00
2019-05-02T02:59:00.941Z,0.00
2019-05-02T03:00:07.809Z,0.00
2019-05-02T03:01:00.878Z,0.00
2019-05-02T03:02:08.974Z,0.00
2019-05-02T03:03:00.850Z,0.00
2019-05-02T03:04:01.890Z,0.00
2019-05-02T03:05:00.837Z,0.00
2019-05-02T03:06:05.794Z,0.00
2019-05-02T03:07:00.822Z,0.00
2019-05-02T03:08:05.298Z,0.00
2019-05-02T03:09:00.792Z,0.00
2019-05-02T03:10:05.877Z,0.00
2019-05-02T03:11:00.771Z,0.00
2019-05-02T03:12:02.106Z,0.00
2019-05-02T03:12:59.767Z,0.00
2019-05-02T03:14:06.365Z,0.00
2019-05-02T03:15:00.719Z,0.00
2019-05-02T03:16:00.425Z,0.00
2019-05-02T03:17:00.717Z,0.00
2019-05-02T03:18:00.359Z,0.00
2019-05-02T03:18:59.678Z,0.00
2019-05-02T03:20:03.414Z,0.00
2019-05-02T03:20:59.666Z,0.00
2019-05-02T03:22:01.640Z,0.00
2019-05-02T03:22:59.712Z,0.00
2019-05-02T03:24:03.420Z,0.00
2019-05-02T03:25:00.621Z,4.00
2019-05-02T03:25:59.681Z,4.00
2019-05-02T03:26:59.599Z,4.00
2019-05-02T03:27:59.598Z,0.00
2019-05-02T03:29:00.745Z,4.00
2019-05-02T03:29:59.559Z,4.00
2019-05-02T03:30:59.565Z,4.00
2019-05-02T03:32:14.951Z,8.00
2019-05-02T03:33:09.527Z,4.00
2019-05-02T03:34:01.550Z,8.00
2019-05-02T03:34:59.498Z,12.00
2019-05-02T03:35:59.501Z,12.00
2019-05-02T03:37:03.428Z,16.00
2019-05-02T03:38:00.498Z,16.00
2019-05-02T03:38:59.480Z,20.00
2019-05-02T03:40:00.720Z,24.00
2019-05-02T03:40:59.437Z,24.00
2019-05-02T03:42:02.982Z,24.00
2019-05-02T03:43:00.467Z,32.00
2019-05-02T03:44:10.708Z,40.00
2019-05-02T03:45:04.768Z,40.00
2019-05-02T03:45:59.387Z,48.00
2019-05-02T03:47:02.363Z,52.00
2019-05-02T03:48:00.375Z,60.00
2019-05-02T03:49:07.230Z,64.00
2019-05-02T03:50:00.343Z,76.00
2019-05-02T03:50:59.340Z,84.00
2019-05-02T03:52:03.072Z,92.00
2019-05-02T03:53:00.320Z,100.00
2019-05-02T03:54:06.999Z,112.00
2019-05-02T03:55:00.314Z,124.00
2019-05-02T03:56:10.853Z,136.00
2019-05-02T03:57:00.255Z,152.00
2019-05-02T03:57:59.247Z,164.00
2019-05-02T03:58:59.287Z,180.00
2019-05-02T03:59:59.254Z,196.00
2019-05-02T04:01:01.639Z,212.00
2019-05-02T04:01:59.215Z,232.00
2019-05-02T04:03:02.040Z,252.00
2019-05-02T04:03:59.195Z,272.00
2019-05-02T04:05:00.733Z,288.00
2019-05-02T04:05:59.169Z,312.00
2019-05-02T04:07:01.018Z,332.00
2019-05-02T04:07:59.144Z,360.00
2019-05-02T04:09:00.435Z,388.00
2019-05-02T04:09:59.155Z,412.00
2019-05-02T04:11:00.053Z,436.00
2019-05-02T04:11:59.137Z,460.00
2019-05-02T04:12:59.946Z,484.00
2019-05-02T04:13:59.084Z,512.00
2019-05-02T04:14:59.084Z,544.00
2019-05-02T04:15:59.054Z,576.00
2019-05-02T04:16:59.055Z,608.00
2019-05-02T04:17:59.117Z,636.00
2019-05-02T04:18:59.025Z,668.00
2019-05-02T04:19:59.026Z,692.00
2019-05-02T04:20:59.007Z,720.00
2019-05-02T04:22:01.736Z,752.00
2019-05-02T04:23:00.000Z,780.00
2019-05-02T04:24:12.760Z,812.00
2019-05-02T04:24:59.971Z,840.00
2019-05-02T04:25:58.943Z,868.00
2019-05-02T04:26:58.944Z,900.00
2019-05-02T04:27:58.935Z,928.00
2019-05-02T04:28:59.077Z,960.00
2019-05-02T04:30:09.711Z,988.00
2019-05-02T04:30:59.904Z,1016.00
2019-05-02T04:32:04.523Z,1048.00
2019-05-02T04:32:59.883Z,1080.00
2019-05-02T04:33:58.880Z,1104.00
2019-05-02T04:34:58.873Z,1132.00
2019-05-02T04:35:59.687Z,1164.00
2019-05-02T04:37:01.576Z,1188.00
2019-05-02T04:38:02.583Z,1212.00
2019-05-02T04:39:05.544Z,1236.00
2019-05-02T04:40:03.225Z,1264.00
2019-05-02T04:40:59.261Z,1284.00
2019-05-02T04:42:05.086Z,1312.00
2019-05-02T04:43:01.922Z,1336.00
2019-05-02T04:44:01.685Z,1360.00
2019-05-02T04:45:14.215Z,1380.00
2019-05-02T04:46:00.296Z,1404.00
2019-05-02T04:46:59.870Z,1424.00
2019-05-02T04:48:03.763Z,1448.00
2019-05-02T04:48:58.980Z,1468.00
2019-05-02T04:49:58.714Z,1488.00
2019-05-02T04:51:08.675Z,1512.00
2019-05-02T04:52:06.336Z,1540.00
2019-05-02T04:52:59.676Z,1564.00
2019-05-02T04:53:59.008Z,1592.00
2019-05-02T04:55:08.002Z,1624.00
2019-05-02T04:56:04.288Z,1648.00
2019-05-02T04:57:02.388Z,1676.00
2019-05-02T04:58:01.671Z,1700.00
2019-05-02T04:59:01.382Z,1728.00
2019-05-02T05:00:06.154Z,1748.00
2019-05-02T05:01:01.832Z,1772.00
2019-05-02T05:02:01.403Z,1800.00
2019-05-02T05:02:58.553Z,1828.00
2019-05-02T05:04:03.021Z,1856.00
2019-05-02T05:04:58.541Z,1884.00
2019-05-02T05:05:59.437Z,1912.00
2019-05-02T05:07:01.106Z,1944.00
2019-05-02T05:07:58.615Z,1972.00
2019-05-02T05:08:58.635Z,2008.00
2019-05-02T05:10:03.007Z,2036.00
2019-05-02T05:10:59.471Z,2060.00
2019-05-02T05:12:02.406Z,2084.00
2019-05-02T05:12:58.430Z,2108.00
2019-05-02T05:14:00.303Z,2128.00
2019-05-02T05:15:00.497Z,2152.00
2019-05-02T05:15:58.428Z,2176.00
2019-05-02T05:16:58.410Z,2196.00
2019-05-02T05:17:58.379Z,2220.00
2019-05-02T05:19:00.127Z,2244.00
2019-05-02T05:20:00.157Z,2264.00
2019-05-02T05:20:58.340Z,2292.00
2019-05-02T05:22:04.490Z,2320.00
2019-05-02T05:22:59.359Z,2348.00
2019-05-02T05:24:01.299Z,2372.00
2019-05-02T05:24:58.408Z,2392.00
2019-05-02T05:26:02.934Z,2412.00
2019-05-02T05:27:00.081Z,2428.00
2019-05-02T05:28:05.265Z,2456.00
2019-05-02T05:28:59.267Z,2472.00
2019-05-02T05:30:02.276Z,2496.00
2019-05-02T05:30:59.248Z,2520.00
2019-05-02T05:32:05.350Z,2556.00
2019-05-02T05:32:59.231Z,2596.00
2019-05-02T05:33:58.251Z,2628.00
2019-05-02T05:35:03.233Z,2644.00
2019-05-02T05:35:59.735Z,2664.00
2019-05-02T05:36:58.346Z,2676.00
2019-05-02T05:37:58.170Z,2688.00
2019-05-02T05:38:58.491Z,2704.00
2019-05-02T05:39:58.166Z,2720.00
2019-05-02T05:40:58.171Z,2732.00
2019-05-02T05:41:58.117Z,2744.00
2019-05-02T05:43:02.676Z,2756.00
2019-05-02T05:43:59.118Z,2776.00
2019-05-02T05:44:58.409Z,2788.00
2019-05-02T05:46:09.145Z,2804.00
2019-05-02T05:46:59.077Z,2824.00
2019-05-02T05:48:01.050Z,2840.00
2019-05-02T05:48:58.460Z,2860.00
2019-05-02T05:50:00.966Z,2880.00
2019-05-02T05:50:58.076Z,2904.00
2019-05-02T05:52:02.248Z,2920.00
2019-05-02T05:52:59.569Z,2948.00
2019-05-02T05:54:02.828Z,2968.00
2019-05-02T05:54:59.006Z,2992.00
2019-05-02T05:55:58.985Z,3008.00
2019-05-02T05:56:57.955Z,3024.00
2019-05-02T05:58:01.791Z,3036.00
2019-05-02T05:58:59.299Z,3052.00
2019-05-02T05:59:58.419Z,3064.00
2019-05-02T06:00:58.446Z,3072.00
2019-05-02T06:01:58.102Z,3080.00
2019-05-02T06:03:10.154Z,3084.00
2019-05-02T06:03:58.866Z,3084.00
2019-05-02T06:05:02.035Z,3092.00
2019-05-02T06:05:58.872Z,3096.00
2019-05-02T06:07:01.597Z,3096.00
2019-05-02T06:07:58.867Z,3104.00
2019-05-02T06:08:57.814Z,3108.00
2019-05-02T06:10:02.413Z,3116.00
2019-05-02T06:10:58.909Z,3124.00
2019-05-02T06:11:57.794Z,3124.00
2019-05-02T06:12:57.825Z,3124.00
2019-05-02T06:13:57.801Z,3124.00
2019-05-02T06:15:01.895Z,3128.00
2019-05-02T06:16:02.633Z,3140.00
2019-05-02T06:16:57.753Z,3140.00
2019-05-02T06:17:59.928Z,3148.00
2019-05-02T06:18:58.736Z,3156.00
2019-05-02T06:19:57.694Z,3160.00
2019-05-02T06:20:58.452Z,3168.00
2019-05-02T06:21:57.933Z,3168.00
2019-05-02T06:23:00.079Z,3168.00
2019-05-02T06:23:57.656Z,3172.00
2019-05-02T06:24:57.634Z,3172.00
2019-05-02T06:25:57.626Z,3176.00
2019-05-02T06:26:57.664Z,3176.00
2019-05-02T06:28:00.136Z,3184.00
2019-05-02T06:28:58.609Z,3188.00
2019-05-02T06:29:57.631Z,3192.00
2019-05-02T06:31:02.044Z,3216.00
2019-05-02T06:31:58.583Z,3220.00
2019-05-02T06:32:57.549Z,3236.00
2019-05-02T06:33:57.577Z,3252.00
2019-05-02T06:34:57.594Z,3264.00
2019-05-02T06:36:01.058Z,3272.00
2019-05-02T06:36:57.522Z,3276.00
2019-05-02T06:37:57.503Z,3280.00
2019-05-02T06:38:57.932Z,3292.00
2019-05-02T06:39:57.481Z,3296.00
2019-05-02T06:40:57.460Z,3300.00
2019-05-02T06:41:58.704Z,3308.00
2019-05-02T06:42:57.448Z,3316.00
2019-05-02T06:43:57.442Z,3328.00
2019-05-02T06:44:59.700Z,3332.00
2019-05-02T06:45:57.412Z,3340.00
2019-05-02T06:46:59.117Z,3352.00
2019-05-02T06:48:01.110Z,3352.00
2019-05-02T06:48:57.394Z,3360.00
2019-05-02T06:50:01.099Z,3368.00
2019-05-02T06:50:58.371Z,3372.00
2019-05-02T06:51:57.723Z,3376.00
2019-05-02T06:52:57.364Z,3376.00
2019-05-02T06:53:57.312Z,3372.00
2019-05-02T06:54:57.925Z,3372.00
2019-05-02T06:55:57.292Z,3376.00
2019-05-02T06:56:57.285Z,3380.00
2019-05-02T06:58:02.823Z,3384.00
2019-05-02T06:58:58.262Z,3392.00
2019-05-02T06:59:57.253Z,3396.00
2019-05-02T07:00:58.889Z,3408.00
2019-05-02T07:01:58.672Z,3420.00
2019-05-02T07:02:57.231Z,3428.00
2019-05-02T07:03:57.211Z,3428.00
2019-05-02T07:04:57.205Z,3424.00
2019-05-02T07:05:58.825Z,3428.00
2019-05-02T07:06:59.542Z,3424.00
2019-05-02T07:07:57.196Z,3424.00
2019-05-02T07:08:59.665Z,3416.00
2019-05-02T07:09:57.361Z,3420.00
2019-05-02T07:11:01.267Z,3416.00
2019-05-02T07:12:01.392Z,3404.00
2019-05-02T07:13:10.167Z,3396.00
2019-05-02T07:13:58.117Z,3396.00
2019-05-02T07:15:01.640Z,3400.00
2019-05-02T07:15:58.082Z,3400.00
2019-05-02T07:16:57.063Z,3404.00
2019-05-02T07:17:57.056Z,3392.00
2019-05-02T07:18:57.056Z,3376.00
2019-05-02T07:19:58.896Z,3376.00
2019-05-02T07:20:58.020Z,3368.00
2019-05-02T07:21:58.404Z,3368.00
2019-05-02T07:22:57.002Z,3368.00
2019-05-02T07:23:57.009Z,3360.00
2019-05-02T07:24:57.034Z,3360.00
2019-05-02T07:26:00.089Z,3360.00
2019-05-02T07:26:58.087Z,3364.00
2019-05-02T07:27:56.941Z,3356.00
2019-05-02T07:28:56.962Z,3352.00
2019-05-02T07:29:57.840Z,3348.00
2019-05-02T07:30:56.928Z,3344.00
2019-05-02T07:31:56.961Z,3344.00
2019-05-02T07:33:01.099Z,3340.00
2019-05-02T07:33:57.892Z,3340.00
2019-05-02T07:34:56.883Z,3344.00
2019-05-02T07:36:00.091Z,3344.00
2019-05-02T07:36:56.884Z,3340.00
2019-05-02T07:37:56.870Z,3340.00
2019-05-02T07:38:58.469Z,3336.00
2019-05-02T07:39:57.830Z,3336.00
2019-05-02T07:40:56.810Z,3328.00
2019-05-02T07:42:00.517Z,3320.00
2019-05-02T07:42:57.781Z,3312.00
2019-05-02T07:43:57.523Z,3308.00
2019-05-02T07:44:56.774Z,3308.00
2019-05-02T07:45:56.759Z,3300.00
2019-05-02T07:47:01.963Z,3304.00
2019-05-02T07:47:57.736Z,3300.00
2019-05-02T07:48:56.733Z,3288.00
2019-05-02T07:49:56.713Z,3276.00
2019-05-02T07:50:57.416Z,3256.00
2019-05-02T07:51:57.751Z,3252.00
2019-05-02T07:52:56.674Z,3240.00
2019-05-02T07:53:56.662Z,3240.00
2019-05-02T07:55:01.105Z,3232.00
2019-05-02T07:55:57.650Z,3224.00
2019-05-02T07:56:56.622Z,3212.00
2019-05-02T07:57:56.621Z,3200.00
2019-05-02T07:58:56.600Z,3188.00
2019-05-02T08:00:00.655Z,3180.00
2019-05-02T08:00:57.604Z,3172.00
2019-05-02T08:01:56.574Z,3164.00
2019-05-02T08:02:57.900Z,3140.00
2019-05-02T08:03:56.560Z,3140.00
2019-05-02T08:04:56.539Z,3148.00
2019-05-02T08:05:58.526Z,3164.00
2019-05-02T08:06:56.510Z,3168.00
2019-05-02T08:07:56.507Z,3176.00
2019-05-02T08:08:56.494Z,3184.00
2019-05-02T08:09:56.495Z,3204.00
2019-05-02T08:11:01.850Z,3220.00
2019-05-02T08:11:57.460Z,3256.00
2019-05-02T08:12:56.440Z,3272.00
2019-05-02T08:14:00.266Z,3312.00
2019-05-02T08:14:56.430Z,3336.00
2019-05-02T08:15:56.434Z,3360.00
2019-05-02T08:17:05.388Z,3380.00
2019-05-02T08:17:57.391Z,3400.00
2019-05-02T08:18:56.401Z,3428.00
2019-05-02T08:19:56.363Z,3432.00
2019-05-02T08:20:57.358Z,3428.00
2019-05-02T08:21:56.342Z,3428.00
2019-05-02T08:22:56.388Z,3432.00
2019-05-02T08:23:57.217Z,3432.00
2019-05-02T08:24:57.320Z,3436.00
2019-05-02T08:25:56.332Z,3436.00
2019-05-02T08:26:58.271Z,3460.00
2019-05-02T08:27:56.284Z,3464.00
2019-05-02T08:28:56.280Z,3468.00
2019-05-02T08:29:59.995Z,3488.00
2019-05-02T08:30:57.262Z,3492.00
2019-05-02T08:31:56.282Z,3492.00
2019-05-02T08:32:56.253Z,3480.00
2019-05-02T08:33:56.211Z,3468.00
2019-05-02T08:34:56.202Z,3468.00
2019-05-02T08:35:56.195Z,3480.00
2019-05-02T08:36:58.828Z,3500.00
2019-05-02T08:37:57.171Z,3520.00
2019-05-02T08:38:56.160Z,3516.00
2019-05-02T08:39:56.151Z,3520.00
2019-05-02T08:40:56.143Z,3512.00
2019-05-02T08:41:57.817Z,3516.00
2019-05-02T08:42:56.166Z,3524.00
2019-05-02T08:43:56.100Z,3520.00
2019-05-02T08:45:00.445Z,3520.00
2019-05-02T08:45:57.081Z,3532.00
2019-05-02T08:46:56.063Z,3544.00
2019-05-02T08:48:00.173Z,3572.00
2019-05-02T08:48:57.061Z,3596.00
2019-05-02T08:49:56.723Z,3620.00
2019-05-02T08:50:56.023Z,3624.00
2019-05-02T08:51:56.032Z,3588.00
2019-05-02T08:52:56.021Z,3584.00
2019-05-02T08:53:56.842Z,3580.00
2019-05-02T08:54:56.018Z,3560.00
2019-05-02T08:55:56.095Z,3564.00
2019-05-02T08:56:59.114Z,3556.00
2019-05-02T08:57:55.943Z,3588.00
2019-05-02T08:58:55.979Z,3592.00
2019-05-02T09:00:00.236Z,3612.00
2019-05-02T09:00:56.937Z,3640.00
2019-05-02T09:01:55.906Z,3652.00
2019-05-02T09:02:57.065Z,3656.00
2019-05-02T09:03:57.128Z,3664.00
2019-05-02T09:04:58.624Z,3664.00
2019-05-02T09:06:05.495Z,3656.00
2019-05-02T09:06:58.759Z,3624.00
2019-05-02T09:07:55.859Z,3600.00
2019-05-02T09:08:55.846Z,3604.00
2019-05-02T09:10:00.295Z,3600.00
2019-05-02T09:10:56.804Z,3608.00
2019-05-02T09:12:09.068Z,3612.00
2019-05-02T09:12:56.795Z,3596.00
2019-05-02T09:13:55.812Z,3620.00
2019-05-02T09:14:55.761Z,3644.00
2019-05-02T09:15:55.851Z,3684.00
2019-05-02T09:16:55.735Z,3708.00
2019-05-02T09:17:56.577Z,3736.00
2019-05-02T09:18:55.736Z,3748.00
2019-05-02T09:20:02.206Z,3712.00
2019-05-02T09:20:56.938Z,3696.00
2019-05-02T09:21:55.687Z,3688.00
2019-05-02T09:22:56.138Z,3672.00
2019-05-02T09:23:55.686Z,3684.00
2019-05-02T09:24:55.652Z,3920.00
2019-05-02T09:25:55.636Z,3876.00
2019-05-02T09:26:55.690Z,3992.00
2019-05-02T09:27:55.623Z,3972.00
2019-05-02T09:28:56.219Z,3820.00
2019-05-02T09:29:56.636Z,3788.00
2019-05-02T09:30:57.516Z,3736.00
2019-05-02T09:31:56.575Z,3588.00
2019-05-02T09:32:57.261Z,3532.00
2019-05-02T09:33:56.586Z,3632.00
2019-05-02T09:35:00.845Z,3704.00
2019-05-02T09:35:56.539Z,3700.00
2019-05-02T09:36:55.544Z,3652.00
2019-05-02T09:37:55.528Z,3768.00
2019-05-02T09:38:57.564Z,3820.00
2019-05-02T09:39:55.518Z,3872.00
2019-05-02T09:40:56.260Z,4004.00
2019-05-02T09:41:55.466Z,4032.00
2019-05-02T09:43:00.065Z,4000.00
2019-05-02T09:43:56.457Z,3952.00
2019-05-02T09:44:56.886Z,4300.00
2019-05-02T09:45:55.418Z,5404.00
2019-05-02T09:46:56.991Z,6400.00
2019-05-02T09:48:04.048Z,7504.00
2019-05-02T09:48:57.115Z,8236.00
2019-05-02T09:49:56.400Z,7044.00
2019-05-02T09:50:57.781Z,5364.00
2019-05-02T09:51:59.084Z,4456.00
2019-05-02T09:52:56.348Z,4280.00
2019-05-02T09:53:57.032Z,4864.00
2019-05-02T09:54:56.320Z,6148.00
2019-05-02T09:55:57.934Z,6400.00
2019-05-02T09:56:55.309Z,6340.00
2019-05-02T09:57:55.288Z,6736.00
2019-05-02T09:59:04.777Z,6320.00
2019-05-02T09:59:56.279Z,5808.00
2019-05-02T10:00:55.361Z,5004.00
2019-05-02T10:01:55.243Z,4676.00
2019-05-02T10:02:55.272Z,4776.00
2019-05-02T10:03:55.219Z,5024.00
2019-05-02T10:04:55.233Z,5880.00
2019-05-02T10:05:55.546Z,6640.00
2019-05-02T10:06:55.232Z,6852.00
2019-05-02T10:07:57.437Z,6620.00
2019-05-02T10:08:56.169Z,5820.00
2019-05-02T10:09:57.738Z,5024.00
2019-05-02T10:10:56.169Z,4480.00
2019-05-02T10:11:55.171Z,4056.00
2019-05-02T10:12:55.138Z,3708.00
2019-05-02T10:13:55.534Z,3704.00
2019-05-02T10:14:55.098Z,3580.00
2019-05-02T10:15:55.102Z,3636.00
2019-05-02T10:16:57.621Z,3864.00
2019-05-02T10:18:07.791Z,3836.00
2019-05-02T10:19:00.336Z,3764.00
2019-05-02T10:19:57.289Z,4072.00
2019-05-02T10:20:55.058Z,4364.00
2019-05-02T10:21:56.416Z,4612.00
2019-05-02T10:22:55.016Z,4044.00
2019-05-02T10:23:59.240Z,3120.00
2019-05-02T10:24:54.993Z,2880.00
2019-05-02T10:25:54.988Z,3072.00
2019-05-02T10:27:03.206Z,3992.00
2019-05-02T10:27:55.978Z,4244.00
2019-05-02T10:28:54.949Z,4540.00
2019-05-02T10:29:57.169Z,5000.00
2019-05-02T10:30:56.631Z,4732.00
2019-05-02T10:31:54.931Z,4236.00
2019-05-02T10:32:57.232Z,4044.00
2019-05-02T10:33:54.911Z,4084.00
2019-05-02T10:34:56.778Z,4140.00
2019-05-02T10:35:54.870Z,4064.00
2019-05-02T10:36:59.105Z,4392.00
2019-05-02T10:37:55.874Z,5416.00
2019-05-02T10:38:59.142Z,6484.00
2019-05-02T10:39:55.928Z,6920.00
2019-05-02T10:41:01.496Z,6780.00
2019-05-02T10:41:57.561Z,6824.00
2019-05-02T10:42:54.824Z,7908.00
2019-05-02T10:43:57.722Z,8556.00
2019-05-02T10:44:54.770Z,8500.00
2019-05-02T10:45:56.504Z,9032.00
2019-05-02T10:46:54.780Z,8980.00
2019-05-02T10:47:54.757Z,8372.00
2019-05-02T10:48:54.731Z,7160.00
2019-05-02T10:49:54.721Z,5948.00
2019-05-02T10:50:54.712Z,4560.00
2019-05-02T10:51:54.706Z,4648.00
2019-05-02T10:52:54.709Z,4708.00
2019-05-02T10:53:56.376Z,5252.00
2019-05-02T10:54:54.662Z,5144.00
2019-05-02T10:55:54.653Z,4608.00
2019-05-02T10:56:54.657Z,3860.00
2019-05-02T10:57:54.653Z,4224.00
2019-05-02T10:58:54.622Z,4092.00
2019-05-02T10:59:56.228Z,4644.00
2019-05-02T11:00:54.602Z,4756.00
2019-05-02T11:01:54.593Z,5512.00
2019-05-02T11:02:54.593Z,5304.00
2019-05-02T11:03:54.597Z,5112.00
2019-05-02T11:04:54.560Z,5548.00
2019-05-02T11:05:57.987Z,6488.00
2019-05-02T11:06:56.820Z,7124.00
2019-05-02T11:07:56.859Z,7404.00
2019-05-02T11:08:55.538Z,6852.00
2019-05-02T11:09:57.343Z,6540.00
2019-05-02T11:10:55.498Z,7520.00
2019-05-02T11:11:54.482Z,8568.00
2019-05-02T11:12:56.132Z,8896.00
2019-05-02T11:14:00.859Z,8368.00
2019-05-02T11:14:55.448Z,7232.00
2019-05-02T11:15:54.435Z,6352.00
2019-05-02T11:16:56.757Z,5444.00
2019-05-02T11:17:54.432Z,4868.00
2019-05-02T11:18:54.420Z,4536.00
2019-05-02T11:19:54.406Z,4720.00
2019-05-02T11:20:54.423Z,4800.00
2019-05-02T11:21:58.728Z,4992.00
2019-05-02T11:22:54.626Z,6264.00
2019-05-02T11:23:54.429Z,7228.00
2019-05-02T11:24:54.363Z,9168.00
2019-05-02T11:25:54.333Z,8932.00
2019-05-02T11:26:54.322Z,7004.00
2019-05-02T11:27:57.267Z,6700.00
2019-05-02T11:28:55.296Z,5892.00
2019-05-02T11:29:54.309Z,5456.00
2019-05-02T11:30:57.057Z,5132.00
2019-05-02T11:31:55.252Z,4976.00
2019-05-02T11:32:54.245Z,5032.00
2019-05-02T11:33:54.253Z,5048.00
2019-05-02T11:34:54.253Z,4068.00
2019-05-02T11:35:54.276Z,4344.00
2019-05-02T11:36:54.206Z,3780.00
2019-05-02T11:37:54.205Z,4184.00
2019-05-02T11:39:04.166Z,3388.00
2019-05-02T11:40:00.516Z,3092.00
2019-05-02T11:40:55.174Z,3168.00
2019-05-02T11:41:54.218Z,3944.00
2019-05-02T11:42:57.353Z,4132.00
2019-05-02T11:43:55.879Z,3828.00
2019-05-02T11:44:54.137Z,3912.00
2019-05-02T11:46:01.541Z,4180.00
2019-05-02T11:46:55.104Z,5116.00
2019-05-02T11:47:55.999Z,4936.00
2019-05-02T11:48:58.036Z,5704.00
2019-05-02T11:49:55.969Z,6016.00
2019-05-02T11:50:54.055Z,7640.00
2019-05-02T11:51:57.120Z,7956.00
2019-05-02T11:52:54.027Z,7628.00
2019-05-02T11:53:54.015Z,7016.00
2019-05-02T11:54:54.025Z,5820.00
2019-05-02T11:55:58.267Z,5484.00
2019-05-02T11:56:54.986Z,5732.00
2019-05-02T11:57:53.975Z,5576.00
2019-05-02T11:58:53.966Z,5092.00
2019-05-02T11:59:53.956Z,4816.00
2019-05-02T12:00:53.955Z,4728.00
2019-05-02T12:01:59.782Z,4796.00
2019-05-02T12:02:58.165Z,4884.00
2019-05-02T12:03:53.905Z,4492.00
2019-05-02T12:04:55.514Z,4220.00
2019-05-02T12:05:53.903Z,4152.00
2019-05-02T12:07:01.033Z,4560.00
2019-05-02T12:07:54.865Z,4976.00
2019-05-02T12:08:53.846Z,5100.00
2019-05-02T12:09:56.965Z,5264.00
2019-05-02T12:10:53.849Z,5708.00
2019-05-02T12:11:56.627Z,5860.00
2019-05-02T12:12:53.824Z,5792.00
2019-05-02T12:13:56.894Z,5788.00
2019-05-02T12:14:53.787Z,5612.00
2019-05-02T12:15:53.796Z,5604.00
2019-05-02T12:16:53.764Z,5760.00
2019-05-02T12:17:53.757Z,5764.00
2019-05-02T12:19:02.267Z,5816.00
2019-05-02T12:19:54.733Z,5380.00
2019-05-02T12:20:53.737Z,5292.00
2019-05-02T12:21:53.706Z,4992.00
2019-05-02T12:22:53.703Z,4888.00
2019-05-02T12:23:53.708Z,4788.00
2019-05-02T12:24:53.676Z,4964.00
2019-05-02T12:25:53.690Z,5200.00
2019-05-02T12:26:53.654Z,5216.00